Maryland — A8DP2 — position and weather

sailwx.info

Track history (hours):
 
Tides and Currents Weather Stations Pressure Air Temp Water Temp Dewpoint Dewpoint Depression Visibility Wind Speed Wind Dir Waves Ship Positions

Maryland

Last reported at 2018-Jun-21 10:00 UTC. Time now 2018-Jun-21 10:08 UTC.
Position N 43°06' E 032°52'.

Length 179 m; draft 7.7 m.

Type: Cargo ship. MMSI: 636012131.

Date/timePositionNaut miles runAvg speedWind from/ knotsBaromVisibWave heightAir tempDewpointWater temp
2018-Jun-21 10:00N 43°06' E 032°52'611.7
2018-Jun-21 09:31N 43°09' E 032°59'611.6
2018-Jun-21 09:01N 43°12' E 033°06'611.7
2018-Jun-21 08:30N 43°15' E 033°13'611.6
2018-Jun-21 08:00N 43°18' E 033°19'611.5
2018-Jun-21 07:30N 43°21' E 033°26'611.6
2018-Jun-21 07:00N 43°24' E 033°33'611.6
2018-Jun-21 06:30N 43°28' E 033°40'611.5
2018-Jun-21 06:00N 43°31' E 033°46'611.5
2018-Jun-21 05:30N 43°34' E 033°52'611.6
2018-Jun-21 05:00N 43°37' E 033°60'611.8
2018-Jun-21 04:30N 43°40' E 034°07'611.9
2018-Jun-21 03:59N 43°43' E 034°14'612.0
2018-Jun-21 03:29N 43°46' E 034°21'11511.7
2018-Jun-20 17:38N 44°57' E 036°29'511.7
2018-Jun-20 17:10N 45°02' E 036°29'211.7
2018-Jun-20 17:00N 45°04' E 036°29'811.1
2018-Jun-20 16:17N 45°12' E 036°28'3 7.9
2018-Jun-20 15:58N 45°14' E 036°28'4 8.1
2018-Jun-20 15:30N 45°18' E 036°29'4 7.4
2018-Jun-20 15:01N 45°20' E 036°34'5 9.6
2018-Jun-20 14:30N 45°22' E 036°40'5 9.1
2018-Jun-20 14:00N 45°26' E 036°41'2 5.0
2018-Jun-20 13:30N 45°29' E 036°40'2 4.6
2018-Jun-20 13:00N 45°30' E 036°37'0 0.0
2018-Jun-20 11:26N 45°30' E 036°37'0 0.0
2018-Jun-20 09:17N 45°30' E 036°37'0 0.0
2018-Jun-20 08:17N 45°30' E 036°37'0 0.0
2018-Jun-20 07:56N 45°30' E 036°37'0 0.0
2018-Jun-20 07:23N 45°30' E 036°37'0 0.0
2018-Jun-20 06:59N 45°30' E 036°37'0 0.0
2018-Jun-20 06:29N 45°30' E 036°37'0 0.0
2018-Jun-20 05:41N 45°30' E 036°37'0 0.0
2018-Jun-20 05:20N 45°30' E 036°37'0 0.0
2018-Jun-20 04:59N 45°30' E 036°37'0 0.0
2018-Jun-20 04:26N 45°30' E 036°37'0 0.0
2018-Jun-19 09:47N 45°30' E 036°37'0 0.0
2018-Jun-19 09:29N 45°30' E 036°37'0 0.0
2018-Jun-19 08:53N 45°30' E 036°37'0 0.0
2018-Jun-19 08:29N 45°30' E 036°37'0 0.0
2018-Jun-19 07:50N 45°30' E 036°37'0 0.0
2018-Jun-19 07:29N 45°30' E 036°37'0 0.0
2018-Jun-19 06:53N 45°30' E 036°37'0 0.0
2018-Jun-19 06:23N 45°30' E 036°37'0 0.0
2018-Jun-19 05:47N 45°30' E 036°37'0 0.0
2018-Jun-19 04:50N 45°30' E 036°37'0 0.0
2018-Jun-19 04:08N 45°30' E 036°37'0 0.0
2018-Jun-19 03:59N 45°30' E 036°37'0 0.0
2018-Jun-18 15:41N 45°30' E 036°37'0 0.0
2018-Jun-18 15:29N 45°30' E 036°37'0 0.0
2018-Jun-18 14:56N 45°30' E 036°37'0 0.0
2018-Jun-18 13:11N 45°30' E 036°37'0 0.0
2018-Jun-18 12:59N 45°30' E 036°37'0 0.0
2018-Jun-18 12:26N 45°30' E 036°37'0 0.0
2018-Jun-18 11:56N 45°30' E 036°37'0 0.0
2018-Jun-18 11:23N 45°30' E 036°37'0 0.0
2018-Jun-18 10:56N 45°30' E 036°37'0 0.0
2018-Jun-18 10:29N 45°30' E 036°37'0 0.0
2018-Jun-18 09:59N 45°30' E 036°37'0 0.0
2018-Jun-18 09:29N 45°30' E 036°37'0 0.1
2018-Jun-18 08:53N 45°30' E 036°37'0 0.3
2018-Jun-18 08:29N 45°30' E 036°37'1 2.8
2018-Jun-18 08:00N 45°31' E 036°38'510.4
2018-Jun-18 07:29N 45°36' E 036°40'611.2
2018-Jun-18 06:58N 45°42' E 036°40'4 0.1
2018-Jun-16 03:14N 45°40' E 036°45'311.6
2018-Jun-16 03:00N 45°37' E 036°45'611.9
2018-Jun-16 02:30N 45°31' E 036°45'611.5
2018-Jun-16 02:00N 45°26' E 036°41'4 8.4
2018-Jun-16 01:30N 45°22' E 036°40'5 9.7
2018-Jun-16 01:00N 45°19' E 036°33'4 7.8
2018-Jun-16 00:30N 45°18' E 036°29'5 9.6
2018-Jun-16 00:00N 45°13' E 036°28'2 4.8
2018-Jun-15 23:30N 45°11' E 036°29'0 0.1
2018-Jun-15 22:53N 45°11' E 036°29'0 0.1
2018-Jun-15 22:14N 45°11' E 036°29'0 0.1
2018-Jun-15 21:56N 45°11' E 036°29'0 0.0
2018-Jun-15 21:29N 45°11' E 036°29'0 0.1
2018-Jun-15 20:59N 45°11' E 036°29'0 0.1
2018-Jun-15 20:29N 45°11' E 036°29'0 0.1
2018-Jun-15 19:59N 45°11' E 036°29'0 0.0
2018-Jun-15 19:26N 45°11' E 036°29'0 0.1
2018-Jun-15 18:56N 45°11' E 036°29'0 0.0
2018-Jun-15 18:29N 45°11' E 036°29'0 0.0
2018-Jun-15 17:41N 45°11' E 036°29'0 0.1
2018-Jun-15 17:26N 45°11' E 036°29'0 0.1
2018-Jun-15 16:56N 45°11' E 036°29'0 0.0
2018-Jun-15 16:27N 45°11' E 036°29'1 2.3
2018-Jun-15 16:00N 45°10' E 036°29'510.0
2018-Jun-15 15:30N 45°05' E 036°30'711.7
2018-Jun-15 14:56N 44°58' E 036°31'512.0
2018-Jun-15 14:30N 44°53' E 036°31'610.9
2018-Jun-15 14:00N 44°48' E 036°27'711.8
2018-Jun-15 13:26N 44°44' E 036°20'511.9
2018-Jun-15 13:00N 44°41' E 036°14'612.0
2018-Jun-15 12:29N 44°38' E 036°07'612.2
2018-Jun-15 12:00N 44°34' E 035°60'612.2
2018-Jun-15 11:30N 44°31' E 035°53'612.4
2018-Jun-15 11:00N 44°28' E 035°46'612.5
2018-Jun-15 10:30N 44°24' E 035°38'612.6
2018-Jun-15 10:00N 44°21' E 035°31'612.5
2018-Jun-15 09:29N 44°17' E 035°23'612.4
2018-Jun-15 09:00N 44°14' E 035°16'7212.1
2018-Jun-15 03:07N 43°34' E 033°54'1312.4
2018-Jun-15 02:02N 43°27' E 033°38'112.4
2018-Jun-15 01:57N 43°26' E 033°37'612.5
2018-Jun-15 01:30N 43°23' E 033°31'612.4
2018-Jun-15 01:00N 43°20' E 033°24'612.5
2018-Jun-15 00:29N 43°16' E 033°16'712.2
2018-Jun-14 23:57N 43°12' E 033°09'11118.5
2018-Jun-14 17:57N 42°11' E 031°03'16 4.4
2018-Jun-14 14:18N 42°02' E 030°45'1 1.9
2018-Jun-14 13:56N 42°01' E 030°44'3 2.8
2018-Jun-14 12:54N 41°60' E 030°41'911.7
2018-Jun-14 12:10N 41°55' E 030°32'412.1
2018-Jun-14 11:48N 41°53' E 030°27'412.1
2018-Jun-14 11:29N 41°51' E 030°22'712.2
2018-Jun-14 10:57N 41°47' E 030°15'4212.2
2018-Jun-14 07:29N 41°24' E 029°27'35 4.8
2018-Jun-14 00:07N 40°58' E 028°56'0 0.0
2018-Jun-13 23:58N 40°58' E 028°56'0 0.0
2018-Jun-13 23:22N 40°58' E 028°56'0 0.0
2018-Jun-13 22:52N 40°58' E 028°56'0 0.0
2018-Jun-13 22:30N 40°58' E 028°56'0 0.0
2018-Jun-13 21:59N 40°58' E 028°56'0 0.0
2018-Jun-13 21:30N 40°58' E 028°56'0 0.0
2018-Jun-13 21:00N 40°58' E 028°56'0 0.0
2018-Jun-13 20:27N 40°58' E 028°56'0 0.0
2018-Jun-13 20:00N 40°58' E 028°56'0 0.0
2018-Jun-13 19:28N 40°58' E 028°56'0 0.0
2018-Jun-13 18:59N 40°58' E 028°56'0 0.0
2018-Jun-13 18:28N 40°58' E 028°56'0 0.0
2018-Jun-13 17:44N 40°58' E 028°56'0 0.1
2018-Jun-13 17:24N 40°58' E 028°56'0 0.0
2018-Jun-13 13:01N 40°58' E 028°56'0 0.0
2018-Jun-13 12:36N 40°58' E 028°56'0 0.1
2018-Jun-13 09:36N 40°58' E 028°56'0 0.1
2018-Jun-13 04:47N 40°58' E 028°57'1 4.1
2018-Jun-13 04:30N 40°57' E 028°58'4 8.4
2018-Jun-13 03:59N 40°53' E 028°60'5 9.7
2018-Jun-13 03:30N 40°50' E 029°04'7 8.1
2018-Jun-13 02:37N 40°50' E 029°14'0 0.6
2018-Jun-13 02:01N 40°50' E 029°13'0 0.0
2018-Jun-13 01:10N 40°50' E 029°13'0 0.1
2018-Jun-13 00:58N 40°50' E 029°13'0 0.0
2018-Jun-12 22:55N 40°50' E 029°13'  
Track history (hours):
 
Tides and Currents Weather Stations Pressure Air Temp Water Temp Dewpoint Dewpoint Depression Visibility Wind Speed Wind Dir Waves Ship Positions

Maryland

Last reported at 2018-Jun-21 10:00 UTC. Time now 2018-Jun-21 10:08 UTC.
Position N 43°06' E 032°52'.

Length 179 m; draft 7.7 m.

Type: Cargo ship. MMSI: 636012131.

Date/timePositionNaut miles runAvg speedWind from/ knotsBaromVisibWave heightAir tempDewpointWater temp
2018-Jun-21 10:00N 43°06' E 032°52'611.7
2018-Jun-21 09:31N 43°09' E 032°59'611.6
2018-Jun-21 09:01N 43°12' E 033°06'611.7
2018-Jun-21 08:30N 43°15' E 033°13'611.6
2018-Jun-21 08:00N 43°18' E 033°19'611.5
2018-Jun-21 07:30N 43°21' E 033°26'611.6
2018-Jun-21 07:00N 43°24' E 033°33'611.6
2018-Jun-21 06:30N 43°28' E 033°40'611.5
2018-Jun-21 06:00N 43°31' E 033°46'611.5
2018-Jun-21 05:30N 43°34' E 033°52'611.6
2018-Jun-21 05:00N 43°37' E 033°60'611.8
2018-Jun-21 04:30N 43°40' E 034°07'611.9
2018-Jun-21 03:59N 43°43' E 034°14'612.0
2018-Jun-21 03:29N 43°46' E 034°21'11511.7
2018-Jun-20 17:38N 44°57' E 036°29'511.7
2018-Jun-20 17:10N 45°02' E 036°29'211.7
2018-Jun-20 17:00N 45°04' E 036°29'811.1
2018-Jun-20 16:17N 45°12' E 036°28'3 7.9
2018-Jun-20 15:58N 45°14' E 036°28'4 8.1
2018-Jun-20 15:30N 45°18' E 036°29'4 7.4
2018-Jun-20 15:01N 45°20' E 036°34'5 9.6
2018-Jun-20 14:30N 45°22' E 036°40'5 9.1
2018-Jun-20 14:00N 45°26' E 036°41'2 5.0
2018-Jun-20 13:30N 45°29' E 036°40'2 4.6
2018-Jun-20 13:00N 45°30' E 036°37'0 0.0
2018-Jun-20 11:26N 45°30' E 036°37'0 0.0
2018-Jun-20 09:17N 45°30' E 036°37'0 0.0
2018-Jun-20 08:17N 45°30' E 036°37'0 0.0
2018-Jun-20 07:56N 45°30' E 036°37'0 0.0
2018-Jun-20 07:23N 45°30' E 036°37'0 0.0
2018-Jun-20 06:59N 45°30' E 036°37'0 0.0
2018-Jun-20 06:29N 45°30' E 036°37'0 0.0
2018-Jun-20 05:41N 45°30' E 036°37'0 0.0
2018-Jun-20 05:20N 45°30' E 036°37'0 0.0
2018-Jun-20 04:59N 45°30' E 036°37'0 0.0
2018-Jun-20 04:26N 45°30' E 036°37'0 0.0
2018-Jun-19 09:47N 45°30' E 036°37'0 0.0
2018-Jun-19 09:29N 45°30' E 036°37'0 0.0
2018-Jun-19 08:53N 45°30' E 036°37'0 0.0
2018-Jun-19 08:29N 45°30' E 036°37'0 0.0
2018-Jun-19 07:50N 45°30' E 036°37'0 0.0
2018-Jun-19 07:29N 45°30' E 036°37'0 0.0
2018-Jun-19 06:53N 45°30' E 036°37'0 0.0
2018-Jun-19 06:23N 45°30' E 036°37'0 0.0
2018-Jun-19 05:47N 45°30' E 036°37'0 0.0
2018-Jun-19 04:50N 45°30' E 036°37'0 0.0
2018-Jun-19 04:08N 45°30' E 036°37'0 0.0
2018-Jun-19 03:59N 45°30' E 036°37'0 0.0
2018-Jun-18 15:41N 45°30' E 036°37'0 0.0
2018-Jun-18 15:29N 45°30' E 036°37'0 0.0
2018-Jun-18 14:56N 45°30' E 036°37'0 0.0
2018-Jun-18 13:11N 45°30' E 036°37'0 0.0
2018-Jun-18 12:59N 45°30' E 036°37'0 0.0
2018-Jun-18 12:26N 45°30' E 036°37'0 0.0
2018-Jun-18 11:56N 45°30' E 036°37'0 0.0
2018-Jun-18 11:23N 45°30' E 036°37'0 0.0
2018-Jun-18 10:56N 45°30' E 036°37'0 0.0
2018-Jun-18 10:29N 45°30' E 036°37'0 0.0
2018-Jun-18 09:59N 45°30' E 036°37'0 0.0
2018-Jun-18 09:29N 45°30' E 036°37'0 0.1
2018-Jun-18 08:53N 45°30' E 036°37'0 0.3
2018-Jun-18 08:29N 45°30' E 036°37'1 2.8
2018-Jun-18 08:00N 45°31' E 036°38'510.4
2018-Jun-18 07:29N 45°36' E 036°40'611.2
2018-Jun-18 06:58N 45°42' E 036°40'4 0.1
2018-Jun-16 03:14N 45°40' E 036°45'311.6
2018-Jun-16 03:00N 45°37' E 036°45'611.9
2018-Jun-16 02:30N 45°31' E 036°45'611.5
2018-Jun-16 02:00N 45°26' E 036°41'4 8.4
2018-Jun-16 01:30N 45°22' E 036°40'5 9.7
2018-Jun-16 01:00N 45°19' E 036°33'4 7.8
2018-Jun-16 00:30N 45°18' E 036°29'5 9.6
2018-Jun-16 00:00N 45°13' E 036°28'2 4.8
2018-Jun-15 23:30N 45°11' E 036°29'0 0.1
2018-Jun-15 22:53N 45°11' E 036°29'0 0.1
2018-Jun-15 22:14N 45°11' E 036°29'0 0.1
2018-Jun-15 21:56N 45°11' E 036°29'0 0.0
2018-Jun-15 21:29N 45°11' E 036°29'0 0.1
2018-Jun-15 20:59N 45°11' E 036°29'0 0.1
2018-Jun-15 20:29N 45°11' E 036°29'0 0.1
2018-Jun-15 19:59N 45°11' E 036°29'0 0.0
2018-Jun-15 19:26N 45°11' E 036°29'0 0.1
2018-Jun-15 18:56N 45°11' E 036°29'0 0.0
2018-Jun-15 18:29N 45°11' E 036°29'0 0.0
2018-Jun-15 17:41N 45°11' E 036°29'0 0.1
2018-Jun-15 17:26N 45°11' E 036°29'0 0.1
2018-Jun-15 16:56N 45°11' E 036°29'0 0.0
2018-Jun-15 16:27N 45°11' E 036°29'1 2.3
2018-Jun-15 16:00N 45°10' E 036°29'510.0
2018-Jun-15 15:30N 45°05' E 036°30'711.7
2018-Jun-15 14:56N 44°58' E 036°31'512.0
2018-Jun-15 14:30N 44°53' E 036°31'610.9
2018-Jun-15 14:00N 44°48' E 036°27'711.8
2018-Jun-15 13:26N 44°44' E 036°20'511.9
2018-Jun-15 13:00N 44°41' E 036°14'612.0
2018-Jun-15 12:29N 44°38' E 036°07'612.2
2018-Jun-15 12:00N 44°34' E 035°60'612.2
2018-Jun-15 11:30N 44°31' E 035°53'612.4
2018-Jun-15 11:00N 44°28' E 035°46'612.5
2018-Jun-15 10:30N 44°24' E 035°38'612.6
2018-Jun-15 10:00N 44°21' E 035°31'612.5
2018-Jun-15 09:29N 44°17' E 035°23'612.4
2018-Jun-15 09:00N 44°14' E 035°16'7212.1
2018-Jun-15 03:07N 43°34' E 033°54'1312.4
2018-Jun-15 02:02N 43°27' E 033°38'112.4
2018-Jun-15 01:57N 43°26' E 033°37'612.5
2018-Jun-15 01:30N 43°23' E 033°31'612.4
2018-Jun-15 01:00N 43°20' E 033°24'612.5
2018-Jun-15 00:29N 43°16' E 033°16'712.2
2018-Jun-14 23:57N 43°12' E 033°09'11118.5
2018-Jun-14 17:57N 42°11' E 031°03'16 4.4
2018-Jun-14 14:18N 42°02' E 030°45'1 1.9
2018-Jun-14 13:56N 42°01' E 030°44'3 2.8
2018-Jun-14 12:54N 41°60' E 030°41'911.7
2018-Jun-14 12:10N 41°55' E 030°32'412.1
2018-Jun-14 11:48N 41°53' E 030°27'412.1
2018-Jun-14 11:29N 41°51' E 030°22'712.2
2018-Jun-14 10:57N 41°47' E 030°15'4212.2
2018-Jun-14 07:29N 41°24' E 029°27'35 4.8
2018-Jun-14 00:07N 40°58' E 028°56'0 0.0
2018-Jun-13 23:58N 40°58' E 028°56'0 0.0
2018-Jun-13 23:22N 40°58' E 028°56'0 0.0
2018-Jun-13 22:52N 40°58' E 028°56'0 0.0
2018-Jun-13 22:30N 40°58' E 028°56'0 0.0
2018-Jun-13 21:59N 40°58' E 028°56'0 0.0
2018-Jun-13 21:30N 40°58' E 028°56'0 0.0
2018-Jun-13 21:00N 40°58' E 028°56'0 0.0
2018-Jun-13 20:27N 40°58' E 028°56'0 0.0
2018-Jun-13 20:00N 40°58' E 028°56'0 0.0
2018-Jun-13 19:28N 40°58' E 028°56'0 0.0
2018-Jun-13 18:59N 40°58' E 028°56'0 0.0
2018-Jun-13 18:28N 40°58' E 028°56'0 0.0
2018-Jun-13 17:44N 40°58' E 028°56'0 0.1
2018-Jun-13 17:24N 40°58' E 028°56'0 0.0
2018-Jun-13 13:01N 40°58' E 028°56'0 0.0
2018-Jun-13 12:36N 40°58' E 028°56'0 0.1
2018-Jun-13 09:36N 40°58' E 028°56'0 0.1
2018-Jun-13 04:47N 40°58' E 028°57'1 4.1
2018-Jun-13 04:30N 40°57' E 028°58'4 8.4
2018-Jun-13 03:59N 40°53' E 028°60'5 9.7
2018-Jun-13 03:30N 40°50' E 029°04'7 8.1
2018-Jun-13 02:37N 40°50' E 029°14'0 0.6
2018-Jun-13 02:01N 40°50' E 029°13'0 0.0
2018-Jun-13 01:10N 40°50' E 029°13'0 0.1
2018-Jun-13 00:58N 40°50' E 029°13'0 0.0
2018-Jun-12 22:55N 40°50' E 029°13'  

Dump ship's entire track history